Aktualne dane pomiarowe

Uwaga, wersja testowa! Automatyczne pobieranie danych za pomocą narzędzi lub skryptów to umożliwiających jest zabronione.

Dane meteo z obszaru Polski uzyskane na podstawie depesz SYNOP pobieranych co godzinę z NWS. Najedź myszką na symbol przedstawiony w tabeli, aby uzyskać informacje co do jego znaczenia. Prosimy pamiętać, że to testowa wersja strony, która jeszcze nie jest ukończona. Stworzono również jest krótki FAQ dotyczący korzystania z tej podstrony Anomalie temperatury w chwili obecnej odniesione są do okresu referencyjnego 1951-2016. Okres ten będzie później zmieniony na 1981-2010. Kliknij ikonę aby pobrać plik CSV. Kliknij ikonę aby wygenerować mapę synoptyczną dla danego terminu.

Wybierz Datę:    

        

Siedlce (12385)

Dane terminowe dla wybranej stacji. Kliknij datę, aby otrzymać dane z tego terminu dla wszystkich stacji.

TemperaturaZachmurzenieWiatrCiśnienieOpadyPogoda
 Data t td wb tx tn tg rh  Nt Nl Cl Cm Ch ws wd g1 g2 wx mslp ppp ch 24h 12h t ww ww w1 w2  
2019-07-07 23:00:00 13.2 9.3 10.7--- 7750.0wxwxwxwx2wx--21007.8 989.5 0.7---------
2019-07-07 22:00:00 14.8 8.1 10.8--- 6445.0wx-wx3wx--31007.4 989.2 0.7---------
2019-07-07 21:00:00 15.8 7.8 11.1--- 5945.0wxwxwx4wx-1141007.0 988.9 0.8---------
2019-07-07 20:00:00 15.3 7.8 10.9--- 6145.0wxwxwx2wx--21006.9 988.8 1.4---------
2019-07-07 19:00:00 15.9 7.4 11.0--- 5750.0wxwxwxwx3wx---1006.6 988.5 1.2---------
2019-07-07 18:00:00 17.6 7.0 11.6 21.3 15.3- 5045.0wxwxwxwx3wx---1006.1 988.1 0.9---------
2019-07-07 17:00:00 18.5 5.7 11.5--- 4350.0wxwxwxwx4wx---1005.3 987.4 -0.1---------
2019-07-07 16:00:00 19.4 6.1 12.1--- 4230.0wxwxwxwxwx5wx---1005.1 987.3 0.0---------
2019-07-07 15:00:00 19.1 5.9 11.9--- 4230.0wxwxwx5wx101151005.1 987.2 -0.1---------
2019-07-07 14:00:00 19.8 6.9 12.6--- 4335.0wxwxwxwx6wx-1161005.3 987.5 0.5---------
2019-07-07 13:00:00 20.5 7.5 13.2--- 4335.0wxwxwxwx5wx---1005.1 987.3 0.5---------
2019-07-07 12:00:00 19.9 8.6 13.4--- 4830.0wxwxwx6wx-1061005.1 987.3 0.4- 0.26wx-w1--
2019-07-07 11:00:00 20.1 10.2 14.2--- 5327.0wxwxwxwx6wx---1004.8 987.0 0.0---------
2019-07-07 10:00:00 18.2 11.7 14.1--- 6630.0wxwxwxwxwx6wx-961004.7 986.8 0.2---------
2019-07-07 09:00:00 16.1 13.4 14.2--- 8430.0wxwxwxwx4wx--41004.9 986.9 0.5---wx-w1--
2019-07-07 08:00:00 15.5 13.9 14.4--- 9021.0wxwxwx3wx--31005.1 987.0 1.0---wx-w1--
2019-07-07 07:00:00 15.6 14.6 14.9--- 9415.0wxwxwx3wx--31004.7 986.6 0.5---wx-w1w2--
2019-07-07 06:00:00 15.6 14.1 14.5 16.9 14.5 13 9113.0wxwxwx3wx--31004.5 986.4 0.2 0.8 0.712wx-w1- 7.1
2019-07-07 05:00:00 15.8 14.5 14.9--- 9214.0wx-wx3wx--31004.0 986.0 -0.4---------
2019-07-07 04:00:00 14.8 14.0 14.2--- 958.0wxwxwx1wx--11004.2 986.1 -1.5---wx---
2019-07-07 03:00:00 14.5 13.7 13.9--- 954.3wxwxwx1wx--11004.3 986.2 -1.3---wx-w1--
2019-07-07 02:00:00 14.9 13.9 14.2--- 949.0wxwxwx2wx--21004.5 986.4 -1.2---wx-w1--
2019-07-07 01:00:00 15.1 14.1 14.4--- 949.0wxwxwx1wx---1005.7 987.6 -0.3---wx-w1--
2019-07-07 00:00:00 15.4 14.8 14.9--- 967.0wxwxwx1wx--11005.6 987.5 -1.0- 0.26wx-w1--
2019-07-06 23:00:00 15.1 14.3 14.5--- 955.0wxwxwx0---01005.7 987.6 -0.7---wx---
2019-07-06 22:00:00 15.4 14.3 14.6--- 9310.0wxwxwx1wx--11006.0 987.9 -0.9---wx---
2019-07-06 21:00:00 16.1 14.6 15.0--- 9115.0wxwxwx1wx--11006.6 988.5 -0.6---wx-w1--
2019-07-06 20:00:00 16.2 14.6 15.1--- 9022.0wxwxwx1wx--11006.4 988.3 -1.5---wx-w1--
2019-07-06 19:00:00 16.4 14.2 14.9--- 8721.0wxwxwxwx1wx--11006.9 988.8 -1.3---wx-w1--
2019-07-06 18:00:00 16.9 14.2 15.0 20.4 14.5- 8429.0wxwxwxwx1wx--11007.1 989.1 -1.1- 0.112wx-w1--
2019-07-06 17:00:00 17.4 14.1 15.1--- 8127.0wxwxwxwx1wx--11007.8 989.8 -0.9---wx-w1w2--
2019-07-06 16:00:00 18.7 12.0 14.5--- 6530.0wxwxwxwx2wx--21008.0 990.1 -0.8---wx-w1--
2019-07-06 15:00:00 19.0 12.0 14.6--- 6435.0wxwxwxwx2wx--21008.1 990.2 -0.8---wx-w1--
2019-07-06 14:00:00 19.0 11.3 14.2--- 6135.0wxwxwxwx3wx--31008.6 990.7 -0.5---------
2019-07-06 13:00:00 18.5 11.1 13.9--- 6245.0wxwxwx3wx--31008.9 990.9 -0.6---------
2019-07-06 12:00:00 18.6 10.9 13.9--- 6145.0wxwxwx4wx--41009.0 991.0 -1.0- 0.06------
2019-07-06 11:00:00 19.9 10.6 14.3--- 5545.0wxwxwxwx4wx--41009.1 991.2 -1.1---------
2019-07-06 10:00:00 19.0 8.0 12.7--- 4927.0wxwxwxwxwx4wx--41009.4 991.5 -0.9---------
2019-07-06 09:00:00 18.4 7.5 12.2--- 4935.0wxwxwxwxwx4wx--41010.0 992.0 -0.6---------
2019-07-06 08:00:00 17.8 6.3 11.4--- 4726.0wxwxwxwxwx4wx--41010.3 992.3 -0.5---------
2019-07-06 07:00:00 16.1 8.1 11.4--- 5930.0wxwxwxwxwx3wx--31010.5 992.4 -0.1---------
2019-07-06 06:00:00 14.7 9.7 11.6 14.7 9.3 4 7228.0wxwxwxwxwx3wx--31010.8 992.6 0.1 3.4 0.012----- 2.0
2019-07-06 05:00:00 12.5 11.2 11.6--- 9226.0wxwxwxwxwx2wx--21011.2 992.8 0.4---------
2019-07-06 04:00:00 11.3 11.0 11.0--- 9811.0wxwxwxwx2wx--21010.9 992.5 0.0---------
2019-07-06 03:00:00 9.7 9.4 9.4--- 985.0wxwxwxwxwx2wx---1011.1 992.5 -0.1---wx---
2019-07-06 02:00:00 9.7 9.2 9.3--- 975.0wxwxwxwx2wx--21011.0 992.4 -0.1---wx---
2019-07-06 01:00:00 10.7 10.1 10.2--- 9611.0wx-wxwx2wx--21011.0 992.5 0.1---------
2019-07-06 00:00:00 11.0 10.1 10.3--- 9416.0wx-wx1wx--11011.1 992.6 0.3- 0.06------
2.5 ms

 

Print Friendly, PDF & Email